createdAt,value
2022-12-01T00:02:56.148Z,45.03
2022-12-01T00:07:59.211Z,50.63
2022-12-01T00:13:03.507Z,44.78
2022-12-01T00:18:07.795Z,39.00
2022-12-01T00:23:09.210Z,44.58
2022-12-01T00:28:10.647Z,49.42
2022-12-01T00:33:12.182Z,39.25
2022-12-01T00:38:13.954Z,47.10
2022-12-01T00:43:15.337Z,51.22
2022-12-01T00:48:16.875Z,49.03
2022-12-01T00:53:18.593Z,52.63
2022-12-01T00:58:20.396Z,45.03
2022-12-01T01:03:21.835Z,50.40
2022-12-01T01:08:23.301Z,54.10
2022-12-01T01:13:24.733Z,52.80
2022-12-01T01:18:26.295Z,48.90
2022-12-01T01:23:27.713Z,43.65
2022-12-01T01:28:30.427Z,48.10
2022-12-01T01:33:31.977Z,51.63
2022-12-01T01:38:34.384Z,46.97
2022-12-01T01:43:49.364Z,50.17
2022-12-01T01:49:01.052Z,48.17
2022-12-01T01:54:06.493Z,52.90
2022-12-01T01:59:08.120Z,41.40
2022-12-01T02:04:09.555Z,47.35
2022-12-01T02:09:12.592Z,49.20
2022-12-01T02:14:37.778Z,49.00
2022-12-01T02:20:14.528Z,55.65
2022-12-01T02:25:21.078Z,44.73
2022-12-01T02:30:28.349Z,47.35
2022-12-01T02:35:46.325Z,44.40
2022-12-01T02:40:56.631Z,45.55
2022-12-01T02:46:26.062Z,45.38
2022-12-01T02:51:34.406Z,57.17
2022-12-01T02:56:35.867Z,43.40
2022-12-01T03:01:50.488Z,48.60
2022-12-01T03:07:16.864Z,52.40
2022-12-01T03:12:21.441Z,46.90
2022-12-01T03:17:29.097Z,49.45
2022-12-01T03:22:39.944Z,53.90
2022-12-01T03:28:13.529Z,57.60
2022-12-01T03:33:13.894Z,64.03
2022-12-01T03:38:22.572Z,61.17
2022-12-01T03:43:29.675Z,67.07
2022-12-01T03:48:31.676Z,61.65
2022-12-01T03:53:43.691Z,61.75
2022-12-01T03:58:48.926Z,52.58
2022-12-01T04:03:50.333Z,57.35
2022-12-01T04:08:51.883Z,50.10
2022-12-01T04:13:53.274Z,42.88
2022-12-01T04:18:54.674Z,46.35
2022-12-01T04:24:02.021Z,57.30
2022-12-01T04:29:06.463Z,57.28
2022-12-01T04:34:08.002Z,52.00
2022-12-01T04:39:09.449Z,57.20
2022-12-01T04:44:11.512Z,52.92
2022-12-01T04:49:13.007Z,59.13
2022-12-01T04:54:15.445Z,59.28
2022-12-01T04:59:16.896Z,63.15
2022-12-01T05:04:18.476Z,53.55
2022-12-01T05:09:21.304Z,46.60
2022-12-01T05:14:22.791Z,53.72
2022-12-01T05:19:43.108Z,55.33
2022-12-01T05:24:44.549Z,52.70
2022-12-01T05:29:46.363Z,52.90
2022-12-01T05:34:47.970Z,48.97
2022-12-01T05:39:49.575Z,48.42
2022-12-01T05:44:51.153Z,51.55
2022-12-01T05:49:52.530Z,48.15
2022-12-01T05:54:53.891Z,51.72
2022-12-01T05:59:55.568Z,49.10
2022-12-01T06:04:57.184Z,48.70
2022-12-01T06:09:58.659Z,48.92
2022-12-01T06:15:00.424Z,52.50
2022-12-01T06:20:03.854Z,51.65
2022-12-01T06:25:06.006Z,53.53
2022-12-01T06:30:08.586Z,54.60
2022-12-01T06:35:13.017Z,48.63
2022-12-01T06:40:14.901Z,50.67
2022-12-01T06:45:16.534Z,55.30
2022-12-01T06:50:18.180Z,55.88
2022-12-01T06:55:20.956Z,57.60
2022-12-01T07:00:22.959Z,62.40
2022-12-01T07:05:26.563Z,55.65
2022-12-01T07:10:28.195Z,61.53
2022-12-01T07:15:30.002Z,61.10
2022-12-01T07:20:31.485Z,63.13
2022-12-01T07:25:33.103Z,60.78
2022-12-01T07:30:34.619Z,62.05
2022-12-01T07:35:36.029Z,57.95
2022-12-01T07:40:37.435Z,57.17
2022-12-01T07:45:38.903Z,47.83
2022-12-01T07:50:40.337Z,58.42
2022-12-01T07:55:48.488Z,67.65
2022-12-01T08:00:49.947Z,62.85
2022-12-01T08:05:58.834Z,57.42
2022-12-01T08:11:02.698Z,61.20
2022-12-01T08:16:05.499Z,61.72
2022-12-01T08:21:12.278Z,66.07
2022-12-01T08:26:16.891Z,61.60
2022-12-01T08:31:21.306Z,58.05
2022-12-01T08:36:23.479Z,62.47
2022-12-01T08:41:25.292Z,64.30
2022-12-01T08:46:36.566Z,71.10
2022-12-01T08:51:37.972Z,74.22
2022-12-01T08:56:44.487Z,64.50
2022-12-01T09:01:54.979Z,68.78
2022-12-01T09:06:57.977Z,67.30
2022-12-01T09:11:59.368Z,72.80
2022-12-01T09:17:00.895Z,76.25
2022-12-01T09:22:02.805Z,71.15
2022-12-01T09:27:05.403Z,73.47
2022-12-01T09:32:06.798Z,60.60
2022-12-01T09:37:08.260Z,63.03
2022-12-01T09:42:15.925Z,56.45
2022-12-01T09:47:24.539Z,64.13
2022-12-01T09:52:29.258Z,68.25
2022-12-01T09:57:36.936Z,61.03
2022-12-01T10:02:43.177Z,58.88
2022-12-01T10:07:51.417Z,69.55
2022-12-01T10:12:53.090Z,66.65
2022-12-01T10:18:22.018Z,57.55
2022-12-01T10:23:33.958Z,59.03
2022-12-01T10:28:45.296Z,57.55
2022-12-01T10:34:15.027Z,60.85
2022-12-01T10:39:34.826Z,55.38
2022-12-01T10:44:36.504Z,53.25
2022-12-01T10:49:40.359Z,53.30
2022-12-01T10:54:42.934Z,52.72
2022-12-01T11:00:21.473Z,65.43
2022-12-01T11:05:41.205Z,54.90
2022-12-01T11:10:48.995Z,50.60
2022-12-01T11:16:01.908Z,50.33
2022-12-01T11:21:26.300Z,54.28
2022-12-01T11:26:31.750Z,57.47
2022-12-01T11:31:50.550Z,44.03
2022-12-01T11:36:56.564Z,55.50
2022-12-01T11:42:01.183Z,49.83
2022-12-01T11:47:24.931Z,45.25
2022-12-01T11:52:32.040Z,46.17
2022-12-01T12:03:01.778Z,36.65
2022-12-01T12:08:15.834Z,38.20
2022-12-01T12:13:45.256Z,40.63
2022-12-01T12:19:33.697Z,40.70
2022-12-01T12:25:22.982Z,44.83
2022-12-01T12:30:31.924Z,43.75
2022-12-01T12:36:05.620Z,41.13
2022-12-01T12:41:43.131Z,46.47
2022-12-01T12:52:16.567Z,47.55
2022-12-01T12:57:25.717Z,46.92
2022-12-01T13:02:37.614Z,49.85
2022-12-01T13:08:05.754Z,45.17
2022-12-01T13:13:38.370Z,43.03
2022-12-01T13:18:48.784Z,47.38
2022-12-01T13:23:52.355Z,49.65
2022-12-01T13:28:56.639Z,48.08
2022-12-01T13:34:03.677Z,47.03
2022-12-01T13:39:15.100Z,47.90
2022-12-01T13:44:31.453Z,45.72
2022-12-01T13:49:46.582Z,42.43
2022-12-01T13:55:09.724Z,45.03
2022-12-01T14:00:29.768Z,41.63
2022-12-01T14:05:40.380Z,44.33
2022-12-01T14:10:58.456Z,43.30
2022-12-01T14:16:02.526Z,37.33
2022-12-01T14:21:07.638Z,49.85
2022-12-01T14:26:23.263Z,40.08
2022-12-01T14:31:33.930Z,48.35
2022-12-01T14:36:46.844Z,47.33
2022-12-01T14:41:53.239Z,40.67
2022-12-01T14:47:01.753Z,37.03
2022-12-01T14:52:13.265Z,44.88
2022-12-01T14:57:20.239Z,41.25
2022-12-01T15:02:21.779Z,40.47
2022-12-01T15:07:23.279Z,38.33
2022-12-01T15:12:27.687Z,44.50
2022-12-01T15:17:37.703Z,45.20
2022-12-01T15:22:41.115Z,41.47
2022-12-01T15:27:43.659Z,42.17
2022-12-01T15:32:45.899Z,40.00
2022-12-01T15:37:48.665Z,40.10
2022-12-01T15:43:04.939Z,50.67
2022-12-01T15:48:15.383Z,48.97
2022-12-01T15:53:23.259Z,46.63
2022-12-01T15:58:27.432Z,52.05
2022-12-01T16:03:29.548Z,50.15
2022-12-01T16:08:31.189Z,46.75
2022-12-01T16:14:03.583Z,56.15
2022-12-01T16:19:07.957Z,53.80
2022-12-01T16:24:15.418Z,54.20
2022-12-01T16:29:22.879Z,47.45
2022-12-01T16:34:45.173Z,54.20
2022-12-01T16:39:46.337Z,45.75
2022-12-01T16:44:53.456Z,56.45
2022-12-01T16:49:55.718Z,57.72
2022-12-01T16:55:00.003Z,56.03
2022-12-01T17:00:01.823Z,49.25
2022-12-01T17:05:03.423Z,54.75
2022-12-01T17:10:05.701Z,52.60
2022-12-01T17:15:08.872Z,58.88
2022-12-01T17:20:11.107Z,47.25
2022-12-01T17:25:15.780Z,52.40
2022-12-01T17:30:19.276Z,51.60
2022-12-01T17:35:22.553Z,51.55
2022-12-01T17:40:27.571Z,48.90
2022-12-01T17:45:29.219Z,48.10
2022-12-01T17:50:30.943Z,60.30
2022-12-01T17:55:33.511Z,57.17
2022-12-01T18:00:35.577Z,64.60
2022-12-01T18:05:38.769Z,49.50
2022-12-01T18:10:41.492Z,52.47
2022-12-01T18:15:43.393Z,54.13
2022-12-01T18:20:48.117Z,61.60
2022-12-01T18:25:49.663Z,57.45
2022-12-01T18:30:51.503Z,54.42
2022-12-01T18:35:54.188Z,51.55
2022-12-01T18:40:59.780Z,59.47
2022-12-01T18:46:03.371Z,53.57
2022-12-01T18:51:11.015Z,52.97
2022-12-01T18:56:15.190Z,48.75
2022-12-01T19:01:23.431Z,56.80
2022-12-01T19:06:26.374Z,54.10
2022-12-01T19:11:29.060Z,57.03
2022-12-01T19:16:33.345Z,49.78
2022-12-01T19:21:44.158Z,52.70
2022-12-01T19:26:46.332Z,61.88
2022-12-01T19:31:49.172Z,53.08
2022-12-01T19:36:53.583Z,59.95
2022-12-01T19:41:57.721Z,61.83
2022-12-01T19:46:59.309Z,57.95
2022-12-01T19:52:06.308Z,57.90
2022-12-01T19:57:07.812Z,60.80
2022-12-01T20:02:11.904Z,57.78
2022-12-01T20:07:13.537Z,64.88
2022-12-01T20:12:15.276Z,62.15
2022-12-01T20:17:17.473Z,62.45
2022-12-01T20:22:23.371Z,64.90
2022-12-01T20:27:25.123Z,79.75
2022-12-01T20:32:27.083Z,76.47
2022-12-01T20:37:30.183Z,71.50
2022-12-01T20:42:31.678Z,77.93
2022-12-01T20:47:36.852Z,81.65
2022-12-01T20:52:41.548Z,82.60
2022-12-01T20:57:45.371Z,78.47
2022-12-01T21:02:50.245Z,76.20
2022-12-01T21:07:53.308Z,83.20
2022-12-01T21:13:37.684Z,83.47
2022-12-01T21:19:06.911Z,81.35
2022-12-01T21:24:09.215Z,92.18
2022-12-01T21:29:21.883Z,79.75
2022-12-01T21:34:27.903Z,77.90
2022-12-01T21:39:30.500Z,84.77
2022-12-01T21:44:38.030Z,76.00
2022-12-01T21:49:39.827Z,86.47
2022-12-01T21:54:43.823Z,101.00
2022-12-01T21:59:45.329Z,91.70
2022-12-01T22:04:47.427Z,84.47
2022-12-01T22:09:52.482Z,87.00
2022-12-01T22:15:03.012Z,92.35
2022-12-01T22:20:21.049Z,83.38
2022-12-01T22:25:26.321Z,84.35
2022-12-01T22:30:28.514Z,90.63
2022-12-01T22:35:36.079Z,89.63
2022-12-01T22:40:48.797Z,88.00
2022-12-01T22:45:59.957Z,76.18
2022-12-01T22:51:21.990Z,83.88
2022-12-01T22:56:39.673Z,87.65
2022-12-01T23:01:48.277Z,91.97
2022-12-01T23:06:58.699Z,90.53
2022-12-01T23:12:28.853Z,84.85
2022-12-01T23:17:32.943Z,90.57
2022-12-01T23:22:34.328Z,89.63
2022-12-01T23:27:37.906Z,78.57
2022-12-01T23:32:39.797Z,94.65
2022-12-01T23:37:42.848Z,91.38
2022-12-01T23:42:44.281Z,96.70
2022-12-01T23:47:46.163Z,99.78
2022-12-01T23:52:48.435Z,90.88
2022-12-01T23:57:50.219Z,108.47
